Time;durP1;ratioP1;P1;durP2;ratioP2;P2;SDS_P1;SDS_P2;PMS_P1;PMS_P2;Temp;Humidity;BMP_temperature;BMP_pressure;BME280_temperature;BME280_humidity;BME280_pressure;Samples;Min_cycle;Max_cycle;Signal;HPM_P1;HPM_P2
2023/07/14 00:00:19;;;;;;;14.77;10.77;;;15.80;99.90;;;;;;5080614;28;20055;-59
2023/07/14 00:02:47;;;;;;;15.77;10.05;;;15.80;99.90;;;;;;5078537;28;20623;-59
2023/07/14 00:05:33;;;;;;;15.73;10.48;;;15.80;99.90;;;;;;5080962;28;20062;-59
2023/07/14 00:07:59;;;;;;;13.40;10.63;;;15.80;99.90;;;;;;5080198;28;20059;-59
2023/07/14 00:10:30;;;;;;;14.93;10.75;;;15.70;99.90;;;;;;5078591;28;20524;-58
2023/07/14 00:12:58;;;;;;;18.10;11.30;;;15.70;99.90;;;;;;5080655;28;20767;-59
2023/07/14 00:15:24;;;;;;;13.13;11.25;;;15.60;99.90;;;;;;5078279;28;20063;-58
2023/07/14 00:18:00;;;;;;;15.07;11.18;;;15.60;99.90;;;;;;5080837;28;20133;-59
2023/07/14 00:20:32;;;;;;;14.95;10.73;;;15.60;99.90;;;;;;5078962;28;20041;-58
2023/07/14 00:22:58;;;;;;;13.77;10.27;;;15.60;99.90;;;;;;5079494;28;20037;-59
2023/07/14 00:25:25;;;;;;;19.33;10.23;;;15.60;99.90;;;;;;5080134;28;20120;-58
2023/07/14 00:27:53;;;;;;;12.15;10.25;;;15.60;99.90;;;;;;5078378;28;20067;-58
2023/07/14 00:30:23;;;;;;;14.30;10.93;;;15.50;99.90;;;;;;5080298;28;20119;-58
2023/07/14 00:32:50;;;;;;;13.93;10.63;;;15.50;99.90;;;;;;5076371;28;20052;-59
2023/07/14 00:35:28;;;;;;;14.23;10.80;;;15.50;99.90;;;;;;5080537;28;20051;-59
2023/07/14 00:37:56;;;;;;;14.20;10.70;;;15.50;99.90;;;;;;5079232;28;20369;-57
2023/07/14 00:40:36;;;;;;;18.10;10.88;;;15.40;99.90;;;;;;5078275;28;20095;-59
2023/07/14 00:43:04;;;;;;;16.80;10.35;;;15.40;99.90;;;;;;5080120;28;20099;-58
2023/07/14 00:45:30;;;;;;;12.32;10.20;;;15.40;99.90;;;;;;5076549;28;20065;-58
2023/07/14 00:48:03;;;;;;;11.48;9.30;;;15.40;99.90;;;;;;5080344;28;20041;-61
2023/07/14 00:50:39;;;;;;;12.77;10.18;;;15.40;99.90;;;;;;5078778;28;20446;-57
2023/07/14 00:53:11;;;;;;;13.55;10.27;;;15.40;99.90;;;;;;5078713;28;20044;-58
2023/07/14 00:55:45;;;;;;;15.88;10.43;;;15.30;99.90;;;;;;5079757;28;20052;-58
2023/07/14 00:58:25;;;;;;;13.13;9.70;;;15.30;99.90;;;;;;5078027;28;20115;-59
2023/07/14 01:01:11;;;;;;;15.05;10.52;;;15.30;99.90;;;;;;5080251;28;20052;-59
2023/07/14 01:03:40;;;;;;;14.50;10.40;;;15.30;99.90;;;;;;5079173;28;20083;-58
2023/07/14 01:06:14;;;;;;;13.68;10.35;;;15.30;99.90;;;;;;5110396;28;20045;-59
2023/07/14 01:08:47;;;;;;;12.68;9.93;;;15.30;99.90;;;;;;5078468;28;20462;-59
2023/07/14 01:11:15;;;;;;;16.50;10.60;;;15.30;99.90;;;;;;5075906;28;20044;-59
2023/07/14 01:13:41;;;;;;;16.58;10.60;;;15.30;99.90;;;;;;5062123;28;20044;-59
2023/07/14 01:16:09;;;;;;;14.55;9.95;;;15.30;99.90;;;;;;5078202;28;20555;-58
2023/07/14 01:18:36;;;;;;;13.13;10.00;;;15.30;99.90;;;;;;5077492;28;20064;-59
2023/07/14 01:21:02;;;;;;;15.90;9.80;;;15.30;99.90;;;;;;5078162;28;20072;-59
2023/07/14 01:23:57;;;;;;;13.25;9.65;;;15.30;99.90;;;;;;5077834;28;20041;-58
2023/07/14 01:26:56;;;;;;;13.68;9.27;;;15.30;99.90;;;;;;5079956;28;20037;-58
2023/07/14 01:29:22;;;;;;;13.40;9.38;;;15.30;99.90;;;;;;5078997;28;20133;-58
2023/07/14 01:31:48;;;;;;;19.42;10.15;;;15.30;99.90;;;;;;5077913;28;20051;-59
2023/07/14 01:34:15;;;;;;;13.00;8.93;;;15.30;99.90;;;;;;5079424;28;20064;-58
2023/07/14 01:36:43;;;;;;;14.00;9.63;;;15.20;99.90;;;;;;5077601;28;20072;-59
2023/07/14 01:39:09;;;;;;;13.40;8.93;;;15.20;99.90;;;;;;5078490;28;20055;-58
2023/07/14 01:41:35;;;;;;;12.73;8.45;;;15.20;99.90;;;;;;5077519;28;20032;-59
2023/07/14 01:44:04;;;;;;;12.38;9.13;;;15.20;99.90;;;;;;5079301;28;20045;-58
2023/07/14 01:46:30;;;;;;;16.45;8.80;;;15.10;99.90;;;;;;5078969;28;20106;-58
2023/07/14 01:48:59;;;;;;;14.23;8.75;;;15.10;99.90;;;;;;5079441;28;20044;-59
2023/07/14 01:51:33;;;;;;;11.70;8.43;;;15.10;99.90;;;;;;5083147;28;20402;-59
2023/07/14 01:54:29;;;;;;;16.45;8.55;;;15.10;99.90;;;;;;5081023;28;20105;-58
2023/07/14 01:56:57;;;;;;;11.97;8.87;;;15.10;99.90;;;;;;5058912;28;20052;-59
2023/07/14 01:59:29;;;;;;;11.23;7.85;;;15.10;99.90;;;;;;5082599;28;20282;-58
2023/07/14 02:01:59;;;;;;;15.70;8.25;;;15.10;99.90;;;;;;5081103;28;20617;-59
2023/07/14 02:04:32;;;;;;;14.60;8.23;;;15.00;99.90;;;;;;5082754;28;20041;-58
2023/07/14 02:07:01;;;;;;;14.20;7.90;;;15.00;99.90;;;;;;5080730;28;20046;-58
2023/07/14 02:09:29;;;;;;;14.45;8.13;;;15.00;99.90;;;;;;5083147;28;20064;-59
2023/07/14 02:12:02;;;;;;;13.00;8.00;;;15.00;99.90;;;;;;5081550;28;20071;-58
2023/07/14 02:14:42;;;;;;;9.75;7.85;;;15.00;99.90;;;;;;5079906;28;20056;-59
2023/07/14 02:17:17;;;;;;;13.55;8.18;;;15.00;99.90;;;;;;5082584;28;20041;-58
2023/07/14 02:19:42;;;;;;;14.90;8.15;;;14.90;99.90;;;;;;5080430;28;20134;-59
2023/07/14 02:22:08;;;;;;;13.40;9.02;;;14.90;99.90;;;;;;5083031;28;20346;-58
2023/07/14 02:24:34;;;;;;;14.98;8.73;;;14.90;99.90;;;;;;5062935;28;20597;-59
2023/07/14 02:27:03;;;;;;;15.00;8.70;;;14.90;99.90;;;;;;5080616;28;20086;-59
2023/07/14 02:29:30;;;;;;;12.85;7.95;;;14.90;99.90;;;;;;5081006;28;20100;-58
2023/07/14 02:32:04;;;;;;;11.35;7.97;;;14.90;99.90;;;;;;5079093;28;20052;-59
2023/07/14 02:34:39;;;;;;;12.80;8.68;;;14.80;99.90;;;;;;5082688;28;20040;-58
2023/07/14 02:37:28;;;;;;;11.07;7.70;;;14.70;99.90;;;;;;5079412;28;20067;-59
2023/07/14 02:39:54;;;;;;;10.80;8.38;;;14.70;99.90;;;;;;5080040;28;20049;-58
2023/07/14 02:42:20;;;;;;;13.10;8.68;;;14.60;99.90;;;;;;5082109;28;20511;-59
2023/07/14 02:44:46;;;;;;;14.38;8.38;;;14.50;99.90;;;;;;5080579;28;20045;-58
2023/07/14 02:47:18;;;;;;;12.80;8.63;;;14.50;99.90;;;;;;5082307;28;20443;-58
2023/07/14 02:49:48;;;;;;;11.82;8.10;;;14.50;99.90;;;;;;5078632;28;20044;-58
2023/07/14 02:52:14;;;;;;;12.07;8.23;;;14.60;99.90;;;;;;5082388;28;20158;-58
2023/07/14 02:54:40;;;;;;;13.00;8.65;;;14.50;99.90;;;;;;5080838;28;20082;-58
2023/07/14 02:57:06;;;;;;;11.43;8.07;;;14.50;99.90;;;;;;5081345;28;20557;-58
2023/07/14 02:59:31;;;;;;;14.32;8.80;;;14.50;99.90;;;;;;5081489;28;20056;-58
2023/07/14 03:01:57;;;;;;;13.25;8.32;;;14.50;99.90;;;;;;5079800;28;20040;-58
2023/07/14 03:04:23;;;;;;;14.63;8.27;;;14.50;99.90;;;;;;5081869;28;20048;-58
2023/07/14 03:06:49;;;;;;;14.00;9.07;;;14.50;99.90;;;;;;5078705;28;20403;-59
2023/07/14 03:09:16;;;;;;;13.93;8.70;;;14.50;99.90;;;;;;5081956;28;20056;-58
2023/07/14 03:11:42;;;;;;;13.77;8.90;;;14.50;99.90;;;;;;5080090;28;20052;-58
2023/07/14 03:14:09;;;;;;;13.93;8.80;;;14.40;99.90;;;;;;5081009;28;20044;-59
2023/07/14 03:16:35;;;;;;;19.27;9.50;;;14.40;99.90;;;;;;5081494;28;20289;-58
2023/07/14 03:19:02;;;;;;;12.43;9.23;;;14.40;99.90;;;;;;5078368;28;20036;-59
2023/07/14 03:21:28;;;;;;;12.88;9.60;;;14.40;99.90;;;;;;5081529;28;20041;-58
2023/07/14 03:23:54;;;;;;;13.45;10.15;;;14.40;99.90;;;;;;5079518;28;20123;-59
2023/07/14 03:26:19;;;;;;;13.52;9.25;;;14.40;99.90;;;;;;5081904;28;20423;-59
2023/07/14 03:28:45;;;;;;;13.38;9.35;;;14.40;99.90;;;;;;5079792;28;20065;-58
2023/07/14 03:31:11;;;;;;;14.45;9.82;;;14.40;99.90;;;;;;5113723;28;20499;-59
2023/07/14 03:33:38;;;;;;;15.07;9.32;;;14.30;99.90;;;;;;5080979;28;20051;-59
2023/07/14 03:36:08;;;;;;;13.77;9.25;;;14.30;99.90;;;;;;5079508;28;20048;-59
2023/07/14 03:38:44;;;;;;;12.68;8.88;;;14.30;99.90;;;;;;5080045;28;20056;-58
2023/07/14 03:41:14;;;;;;;16.08;9.43;;;14.30;99.90;;;;;;5078717;28;20049;-59
2023/07/14 03:43:40;;;;;;;13.75;9.70;;;14.30;99.90;;;;;;5081490;28;20041;-58
2023/07/14 03:46:07;;;;;;;12.48;9.23;;;14.30;99.90;;;;;;5079799;28;20405;-58
2023/07/14 03:48:33;;;;;;;11.75;8.90;;;14.30;99.90;;;;;;5079987;28;20032;-59
2023/07/14 03:51:05;;;;;;;12.82;10.00;;;14.30;99.90;;;;;;5080813;28;20063;-59
2023/07/14 03:53:31;;;;;;;13.30;10.30;;;14.40;99.90;;;;;;5079034;28;20040;-59
2023/07/14 03:55:57;;;;;;;15.00;9.95;;;14.40;99.90;;;;;;5080922;28;20028;-58
2023/07/14 03:58:23;;;;;;;16.20;9.80;;;14.40;99.90;;;;;;5078501;28;20504;-58
2023/07/14 04:00:49;;;;;;;18.00;10.18;;;14.40;99.90;;;;;;5079738;28;20071;-58
2023/07/14 04:03:15;;;;;;;13.52;8.73;;;14.40;99.90;;;;;;5079358;28;20049;-58
2023/07/14 04:05:48;;;;;;;12.27;9.68;;;14.40;99.90;;;;;;5079844;28;20074;-58
2023/07/14 04:08:14;;;;;;;15.00;9.07;;;14.40;99.90;;;;;;5080574;28;20400;-59
2023/07/14 04:10:39;;;;;;;17.27;9.05;;;14.60;99.90;;;;;;5077732;28;20111;-58
2023/07/14 04:13:05;;;;;;;15.55;9.02;;;14.40;99.90;;;;;;5080229;28;20058;-59
2023/07/14 04:15:31;;;;;;;15.82;9.93;;;14.40;99.90;;;;;;5078051;28;20044;-59
2023/07/14 04:17:56;;;;;;;24.77;9.82;;;14.40;99.90;;;;;;5080504;28;20063;-59
2023/07/14 04:20:22;;;;;;;21.48;9.63;;;14.40;99.90;;;;;;5079060;28;20037;-58
2023/07/14 04:22:48;;;;;;;16.02;9.23;;;14.50;99.90;;;;;;5078334;28;20529;-58
2023/07/14 04:25:13;;;;;;;13.20;9.13;;;14.50;99.90;;;;;;5080138;28;20611;-58
2023/07/14 04:27:39;;;;;;;15.20;8.85;;;14.50;99.90;;;;;;5078353;28;20143;-58
2023/07/14 04:30:08;;;;;;;16.65;8.80;;;14.60;99.90;;;;;;5078936;28;20051;-58
2023/07/14 04:32:34;;;;;;;15.88;8.43;;;14.60;99.90;;;;;;5077818;28;20080;-58
2023/07/14 04:34:59;;;;;;;17.20;9.07;;;14.60;99.90;;;;;;5080374;28;20041;-58
2023/07/14 04:37:25;;;;;;;18.73;9.43;;;14.60;99.90;;;;;;5078723;28;20062;-58
2023/07/14 04:39:51;;;;;;;15.38;9.40;;;14.70;99.90;;;;;;5079277;28;20097;-59
2023/07/14 04:42:16;;;;;;;15.50;8.52;;;14.70;99.90;;;;;;5078488;28;20515;-58
2023/07/14 04:44:42;;;;;;;14.82;9.07;;;14.70;99.90;;;;;;5078191;28;20041;-58
2023/07/14 04:47:08;;;;;;;15.00;8.98;;;14.80;99.90;;;;;;5078776;28;20045;-58
2023/07/14 04:49:34;;;;;;;13.73;9.48;;;14.80;99.90;;;;;;5110365;28;20055;-58
2023/07/14 04:52:00;;;;;;;12.43;8.70;;;14.80;99.90;;;;;;5080331;28;20051;-58
2023/07/14 04:54:26;;;;;;;13.45;9.35;;;14.80;99.90;;;;;;5078368;28;20076;-58
2023/07/14 04:56:52;;;;;;;13.38;8.65;;;14.80;99.90;;;;;;5079529;28;20101;-59
2023/07/14 04:59:18;;;;;;;14.00;8.85;;;14.90;99.90;;;;;;5079496;28;20436;-58
2023/07/14 05:01:43;;;;;;;13.73;8.93;;;14.90;99.90;;;;;;5076768;28;20132;-59
2023/07/14 05:04:09;;;;;;;17.30;9.50;;;14.90;99.90;;;;;;5078349;28;20040;-58
2023/07/14 05:06:35;;;;;;;13.05;8.98;;;14.90;99.90;;;;;;5077997;28;20068;-59
2023/07/14 05:09:00;;;;;;;10.68;8.60;;;15.00;99.90;;;;;;5079990;28;20050;-58
2023/07/14 05:11:27;;;;;;;15.10;9.50;;;15.00;99.90;;;;;;5077685;28;20075;-58
2023/07/14 05:13:53;;;;;;;13.25;9.57;;;15.00;99.90;;;;;;5078055;28;20056;-59
2023/07/14 05:16:20;;;;;;;13.35;9.23;;;15.10;99.90;;;;;;5078925;28;20170;-58
2023/07/14 05:18:46;;;;;;;15.48;8.98;;;15.10;99.90;;;;;;5078221;28;20052;-59
2023/07/14 05:21:12;;;;;;;12.75;8.75;;;15.10;99.90;;;;;;5079622;28;20041;-59
2023/07/14 05:23:38;;;;;;;17.85;10.02;;;15.10;99.90;;;;;;5080655;28;20067;-59
2023/07/14 05:26:03;;;;;;;15.70;9.60;;;15.20;99.90;;;;;;5083936;28;20045;-59
2023/07/14 05:28:29;;;;;;;15.57;9.75;;;15.20;99.90;;;;;;5081545;28;20094;-59
2023/07/14 05:30:55;;;;;;;15.60;9.32;;;15.20;99.90;;;;;;5083703;28;20064;-59
2023/07/14 05:33:21;;;;;;;18.25;10.93;;;15.30;99.90;;;;;;5081336;28;20053;-58
2023/07/14 05:35:48;;;;;;;13.60;10.55;;;15.40;99.90;;;;;;5082342;28;20045;-58
2023/07/14 05:38:15;;;;;;;17.20;11.30;;;15.40;99.90;;;;;;5083360;28;20040;-58
2023/07/14 05:40:41;;;;;;;20.48;11.50;;;15.40;99.90;;;;;;5081445;28;20046;-59
2023/07/14 05:43:07;;;;;;;16.42;12.07;;;15.50;99.90;;;;;;5083561;28;20103;-58
2023/07/14 05:45:33;;;;;;;15.70;11.93;;;15.50;99.90;;;;;;5081331;28;20047;-59
2023/07/14 05:47:58;;;;;;;17.70;12.63;;;15.60;99.90;;;;;;5082249;28;20053;-58
2023/07/14 05:50:24;;;;;;;20.85;14.20;;;15.60;99.90;;;;;;5082121;28;20029;-58
2023/07/14 05:52:50;;;;;;;17.58;12.95;;;15.70;99.90;;;;;;5081919;28;20055;-58
2023/07/14 05:55:16;;;;;;;17.48;11.95;;;15.80;99.90;;;;;;5083013;28;20045;-58
2023/07/14 05:57:43;;;;;;;17.83;11.77;;;15.90;99.90;;;;;;5081124;28;20044;-59
2023/07/14 06:00:16;;;;;;;19.50;13.43;;;15.90;99.90;;;;;;5083066;28;20063;-59
2023/07/14 06:02:43;;;;;;;19.02;13.70;;;16.00;99.90;;;;;;5080964;28;20052;-58
2023/07/14 06:05:10;;;;;;;18.45;13.23;;;16.10;99.90;;;;;;5083219;28;20467;-58
2023/07/14 06:07:37;;;;;;;17.45;12.43;;;16.20;99.90;;;;;;5081849;28;20051;-58
2023/07/14 06:10:03;;;;;;;17.98;13.73;;;16.20;99.90;;;;;;5081532;28;20044;-59
2023/07/14 06:12:29;;;;;;;14.52;12.68;;;16.30;99.90;;;;;;5082484;28;20119;-59
2023/07/14 06:14:55;;;;;;;15.65;12.82;;;16.40;99.90;;;;;;5079397;28;20511;-60
2023/07/14 06:17:21;;;;;;;22.30;13.10;;;16.50;99.90;;;;;;5082915;28;20040;-58
2023/07/14 06:19:47;;;;;;;16.63;12.35;;;16.60;99.90;;;;;;5080338;28;20044;-59
2023/07/14 06:22:13;;;;;;;16.75;12.57;;;16.60;99.90;;;;;;5082753;28;20570;-58
2023/07/14 06:24:40;;;;;;;14.60;10.88;;;16.70;99.90;;;;;;5081448;28;20040;-58
2023/07/14 06:27:06;;;;;;;19.45;11.90;;;16.70;99.90;;;;;;5081657;28;20040;-58
2023/07/14 06:29:33;;;;;;;14.02;10.10;;;16.80;99.90;;;;;;5082469;28;20043;-59
2023/07/14 06:32:00;;;;;;;16.40;11.77;;;16.90;99.90;;;;;;5080545;28;20068;-59
2023/07/14 06:34:25;;;;;;;13.93;10.43;;;17.00;99.90;;;;;;5097479;28;20460;-58
2023/07/14 06:36:51;;;;;;;15.20;10.85;;;17.10;99.90;;;;;;5080085;28;20044;-59
2023/07/14 06:39:18;;;;;;;14.70;10.80;;;17.20;99.90;;;;;;5081564;28;20052;-59
2023/07/14 06:41:44;;;;;;;13.30;8.90;;;17.30;99.90;;;;;;5080821;28;20040;-58
2023/07/14 06:44:10;;;;;;;14.88;10.88;;;17.40;99.90;;;;;;5081378;28;20045;-59
2023/07/14 06:46:35;;;;;;;9.77;7.85;;;17.50;99.90;;;;;;5080591;28;20078;-58
2023/07/14 06:49:03;;;;;;;13.30;8.35;;;17.70;99.90;;;;;;5080157;28;20032;-58
2023/07/14 06:51:29;;;;;;;13.25;8.38;;;17.80;99.90;;;;;;5082271;28;20049;-59
2023/07/14 06:53:55;;;;;;;13.75;7.88;;;17.90;99.90;;;;;;5079965;28;20036;-59
2023/07/14 06:56:21;;;;;;;12.32;8.15;;;18.00;99.90;;;;;;5081029;28;20136;-58
2023/07/14 06:58:46;;;;;;;11.95;8.13;;;18.10;99.90;;;;;;5080645;28;20044;-58
2023/07/14 07:01:13;;;;;;;14.00;7.78;;;18.20;99.90;;;;;;5081370;28;20054;-59
2023/07/14 07:03:38;;;;;;;12.18;7.57;;;18.40;99.90;;;;;;5081911;28;20040;-58
2023/07/14 07:06:04;;;;;;;10.82;7.18;;;18.60;99.90;;;;;;5080026;28;20074;-58
2023/07/14 07:08:30;;;;;;;10.27;5.63;;;18.70;99.90;;;;;;5080480;28;20032;-59
2023/07/14 07:10:55;;;;;;;16.17;6.45;;;18.90;99.90;;;;;;5061154;28;20116;-59
2023/07/14 07:13:21;;;;;;;11.15;6.13;;;18.90;99.90;;;;;;5082080;28;20436;-58
2023/07/14 07:15:47;;;;;;;12.52;6.10;;;18.90;99.90;;;;;;5079950;28;20053;-59
2023/07/14 07:18:15;;;;;;;12.18;5.85;;;19.00;99.90;;;;;;5081242;28;20052;-59
2023/07/14 07:20:42;;;;;;;11.52;5.20;;;19.10;99.90;;;;;;5079726;28;20062;-58
2023/07/14 07:23:08;;;;;;;9.88;5.35;;;19.20;99.90;;;;;;5079616;28;20531;-59
2023/07/14 07:25:34;;;;;;;6.63;4.60;;;19.30;99.90;;;;;;5081345;28;20054;-59
2023/07/14 07:28:00;;;;;;;7.40;4.70;;;19.50;99.90;;;;;;5079537;28;20064;-59
2023/07/14 07:30:25;;;;;;;8.63;3.85;;;19.50;99.90;;;;;;5080173;28;20052;-59
2023/07/14 07:32:51;;;;;;;7.15;3.85;;;19.60;99.90;;;;;;5079366;28;20049;-58
2023/07/14 07:35:17;;;;;;;8.48;3.58;;;19.80;99.90;;;;;;5081081;28;20044;-59
2023/07/14 07:37:43;;;;;;;7.63;2.88;;;20.00;99.90;;;;;;5080545;28;20048;-58
2023/07/14 07:40:11;;;;;;;8.27;3.05;;;20.30;99.90;;;;;;5079515;28;20040;-59
2023/07/14 07:42:37;;;;;;;5.82;3.05;;;20.60;99.90;;;;;;5081191;28;20413;-60
2023/07/14 07:45:04;;;;;;;9.30;3.38;;;20.70;99.90;;;;;;5078982;28;20048;-59
2023/07/14 07:47:29;;;;;;;6.28;3.20;;;20.80;99.90;;;;;;5080533;28;20527;-59
2023/07/14 07:49:55;;;;;;;8.02;3.10;;;21.00;99.90;;;;;;5079068;28;20037;-59
2023/07/14 07:52:21;;;;;;;10.13;3.50;;;21.10;99.90;;;;;;5080687;28;20049;-59
2023/07/14 07:54:47;;;;;;;9.27;3.70;;;21.20;99.90;;;;;;5080270;28;20067;-59
2023/07/14 07:57:13;;;;;;;6.22;3.05;;;21.20;99.90;;;;;;5078206;28;20095;-59
2023/07/14 07:59:39;;;;;;;7.13;3.80;;;21.20;99.90;;;;;;5080725;28;20074;-59
2023/07/14 08:02:08;;;;;;;6.53;3.20;;;21.00;99.90;;;;;;5078615;28;20496;-59
2023/07/14 08:04:34;;;;;;;7.40;3.58;;;20.80;99.90;;;;;;5081145;28;20066;-59
2023/07/14 08:07:00;;;;;;;8.73;3.33;;;20.70;99.90;;;;;;5077044;28;20060;-59
2023/07/14 08:09:25;;;;;;;6.03;3.80;;;20.60;99.90;;;;;;5079287;28;20117;-59
2023/07/14 08:11:56;;;;;;;8.73;3.78;;;20.70;99.90;;;;;;5079377;28;20037;-59
2023/07/14 08:14:22;;;;;;;7.97;3.92;;;20.90;99.90;;;;;;5078838;28;20083;-59
2023/07/14 08:16:47;;;;;;;6.38;3.28;;;21.10;99.90;;;;;;5078877;28;20049;-59
2023/07/14 08:19:13;;;;;;;11.13;4.30;;;21.30;99.90;;;;;;5078435;28;20046;-59
2023/07/14 08:21:39;;;;;;;9.02;3.55;;;21.50;99.90;;;;;;5080449;28;20046;-59
2023/07/14 08:24:06;;;;;;;5.68;3.50;;;21.50;99.90;;;;;;5078437;28;20488;-59
2023/07/14 08:26:33;;;;;;;6.93;3.15;;;21.60;99.90;;;;;;5080578;28;20155;-60
2023/07/14 08:28:59;;;;;;;8.13;4.10;;;21.70;99.90;;;;;;5079326;28;20049;-58
2023/07/14 08:31:25;;;;;;;8.35;3.70;;;21.70;99.90;;;;;;5077696;28;20090;-59
2023/07/14 08:33:51;;;;;;;6.78;3.85;;;21.70;99.90;;;;;;5078611;28;20483;-59
2023/07/14 08:36:17;;;;;;;5.88;3.97;;;21.60;99.90;;;;;;5078137;28;20524;-59
2023/07/14 08:38:44;;;;;;;8.32;4.50;;;21.80;99.90;;;;;;5080409;28;20056;-59
2023/07/14 08:41:36;;;;;;;6.70;3.80;;;21.90;99.90;;;;;;5077565;28;20062;-59
2023/07/14 08:44:25;;;;;;;9.57;4.85;;;21.90;99.90;;;;;;5079233;28;20056;-59
2023/07/14 08:47:09;;;;;;;9.20;4.60;;;21.90;99.90;;;;;;5079816;28;20127;-59
2023/07/14 08:49:58;;;;;;;10.15;3.70;;;22.00;99.90;;;;;;5077912;28;20408;-59
2023/07/14 08:52:38;;;;;;;7.18;3.88;;;22.20;99.90;;;;;;5079779;28;20107;-59
2023/07/14 08:55:12;;;;;;;9.13;3.78;;;22.40;99.90;;;;;;5112171;28;20157;-58
2023/07/14 08:57:54;;;;;;;8.18;3.92;;;22.60;99.90;;;;;;5077619;28;20056;-59
2023/07/14 09:01:09;;;;;;;6.88;4.20;;;22.80;99.90;;;;;;5078690;28;20105;-59
2023/07/14 09:03:51;;;;;;;5.93;3.58;;;22.90;99.90;;;;;;5078169;28;20049;-59
2023/07/14 09:06:17;;;;;;;7.25;3.60;;;23.00;99.90;;;;;;5077924;28;20503;-59
2023/07/14 09:08:44;;;;;;;6.13;3.58;;;23.20;99.90;;;;;;5080281;28;20052;-59
2023/07/14 09:11:41;;;;;;;6.80;3.30;;;23.20;99.90;;;;;;5077331;28;20050;-59
2023/07/14 09:14:30;;;;;;;6.93;3.80;;;23.40;99.70;;;;;;5078716;28;20092;-59
2023/07/14 09:17:25;;;;;;;6.28;3.47;;;23.40;99.70;;;;;;5079879;28;20056;-59
2023/07/14 09:20:05;;;;;;;6.60;3.60;;;23.50;99.40;;;;;;5077383;28;20057;-59
2023/07/14 09:22:48;;;;;;;4.30;3.22;;;23.40;98.80;;;;;;5079218;28;20044;-59
2023/07/14 09:25:32;;;;;;;7.65;3.20;;;23.40;99.30;;;;;;5079461;28;20661;-59
2023/07/14 09:27:58;;;;;;;7.82;3.42;;;23.40;99.20;;;;;;5077689;28;20060;-59
2023/07/14 09:30:26;;;;;;;6.55;3.30;;;23.50;97.90;;;;;;5079846;28;20040;-59
2023/07/14 09:32:57;;;;;;;6.00;3.50;;;23.40;98.00;;;;;;5077650;28;20056;-59
2023/07/14 09:35:28;;;;;;;7.53;3.70;;;23.30;98.40;;;;;;5079154;28;20041;-59
2023/07/14 09:38:19;;;;;;;8.20;3.53;;;23.10;98.80;;;;;;5079346;28;20040;-59
2023/07/14 09:40:50;;;;;;;4.90;3.30;;;23.00;98.00;;;;;;5077081;28;20044;-59
2023/07/14 09:43:16;;;;;;;6.10;3.35;;;22.80;98.60;;;;;;5079854;28;20037;-59
2023/07/14 09:45:42;;;;;;;8.32;3.20;;;22.60;98.90;;;;;;5077632;28;20070;-58
2023/07/14 09:48:14;;;;;;;5.85;3.38;;;22.50;98.80;;;;;;5079088;28;20052;-59
2023/07/14 09:50:47;;;;;;;5.82;3.28;;;22.40;98.70;;;;;;5079041;28;20045;-58
2023/07/14 09:53:13;;;;;;;5.57;3.20;;;22.30;98.70;;;;;;5077144;28;20044;-59
2023/07/14 09:55:48;;;;;;;6.22;3.25;;;22.10;99.10;;;;;;5079396;28;20100;-59
2023/07/14 09:58:15;;;;;;;6.97;3.10;;;22.10;99.30;;;;;;5077087;28;20048;-59
2023/07/14 10:00:42;;;;;;;4.88;3.05;;;22.10;99.70;;;;;;5079489;28;20507;-59
2023/07/14 10:03:11;;;;;;;6.57;3.28;;;22.20;99.90;;;;;;5076312;28;20056;-59
2023/07/14 10:05:46;;;;;;;7.28;3.47;;;22.20;99.50;;;;;;5078043;28;20096;-61
2023/07/14 10:08:27;;;;;;;5.85;3.30;;;22.20;99.30;;;;;;5079113;28;20048;-59
2023/07/14 10:10:55;;;;;;;7.50;3.67;;;22.30;98.80;;;;;;5079818;28;20052;-61
2023/07/14 10:13:26;;;;;;;7.68;4.05;;;22.30;99.20;;;;;;5083119;28;20036;-61
2023/07/14 10:16:07;;;;;;;5.47;3.97;;;22.30;99.10;;;;;;5079979;28;20460;-59
2023/07/14 10:18:50;;;;;;;8.38;4.00;;;22.20;98.00;;;;;;5081488;28;20060;-61
2023/07/14 10:21:22;;;;;;;7.05;3.67;;;22.20;98.50;;;;;;5081624;28;20450;-61
2023/07/14 10:24:16;;;;;;;7.97;3.70;;;22.30;99.20;;;;;;5080576;28;20093;-59
2023/07/14 10:26:54;;;;;;;8.00;4.22;;;22.40;98.30;;;;;;5082044;28;20044;-58
2023/07/14 10:29:23;;;;;;;8.13;4.32;;;22.40;98.80;;;;;;5082423;28;20053;-59
2023/07/14 10:32:03;;;;;;;10.10;4.07;;;22.40;98.70;;;;;;5079352;28;20037;-59
2023/07/14 10:35:06;;;;;;;8.02;4.68;;;22.30;98.60;;;;;;5082767;28;20036;-62
2023/07/14 10:37:38;;;;;;;8.07;4.40;;;22.30;98.40;;;;;;5081507;28;20052;-59
2023/07/14 10:40:14;;;;;;;7.55;4.65;;;22.30;98.50;;;;;;5080658;28;20045;-59
2023/07/14 10:43:01;;;;;;;8.40;4.80;;;22.30;98.30;;;;;;5082567;28;20086;-59
2023/07/14 10:45:28;;;;;;;6.25;4.22;;;22.20;98.50;;;;;;5080128;28;20052;-59
2023/07/14 10:48:33;;;;;;;6.32;4.15;;;22.20;98.60;;;;;;5082423;28;20472;-61
2023/07/14 10:51:26;;;;;;;10.98;4.40;;;22.20;98.60;;;;;;5081417;28;20057;-62
2023/07/14 10:54:13;;;;;;;6.93;4.05;;;22.20;98.60;;;;;;5079852;28;20049;-62
2023/07/14 10:56:46;;;;;;;6.65;3.88;;;22.20;98.50;;;;;;5080584;28;20080;-59
2023/07/14 10:59:39;;;;;;;9.70;3.88;;;22.30;99.20;;;;;;5081967;28;20068;-59
2023/07/14 11:02:25;;;;;;;6.60;4.20;;;22.50;99.70;;;;;;5078389;28;20048;-60
2023/07/14 11:04:58;;;;;;;7.40;3.63;;;22.60;99.20;;;;;;5082232;28;20048;-59
2023/07/14 11:07:29;;;;;;;8.32;4.13;;;22.60;99.00;;;;;;5079312;28;20052;-59
2023/07/14 11:09:56;;;;;;;10.48;4.68;;;22.60;99.10;;;;;;5080301;28;20041;-62
2023/07/14 11:12:22;;;;;;;8.25;4.50;;;22.60;98.70;;;;;;5081516;28;20106;-60
2023/07/14 11:15:15;;;;;;;7.82;4.30;;;22.50;98.80;;;;;;5079508;28;20504;-59
2023/07/14 11:18:02;;;;;;;7.88;4.90;;;22.50;99.60;;;;;;5080613;28;20091;-59
2023/07/14 11:20:28;;;;;;;8.73;4.20;;;22.50;99.70;;;;;;5080714;28;20047;-60
2023/07/14 11:23:05;;;;;;;7.57;5.07;;;22.60;99.00;;;;;;5079964;28;20041;-60
2023/07/14 11:26:05;;;;;;;8.35;4.65;;;22.60;99.10;;;;;;5081721;28;20044;-60
2023/07/14 11:28:31;;;;;;;6.57;4.72;;;22.50;98.40;;;;;;5068807;28;20052;-59
2023/07/14 11:31:00;;;;;;;8.82;4.63;;;22.50;99.00;;;;;;5080785;28;20051;-59
2023/07/14 11:33:40;;;;;;;9.18;4.80;;;22.60;98.70;;;;;;5080863;28;20032;-60
2023/07/14 11:36:18;;;;;;;9.85;5.13;;;22.70;98.60;;;;;;5079461;28;20071;-59
2023/07/14 11:38:57;;;;;;;8.48;5.28;;;22.70;98.10;;;;;;5081626;28;20076;-60
2023/07/14 11:41:23;;;;;;;8.88;5.20;;;22.60;98.30;;;;;;5079510;28;20472;-59
2023/07/14 11:43:49;;;;;;;7.85;5.57;;;22.50;98.60;;;;;;5080656;28;20051;-59
2023/07/14 11:46:20;;;;;;;7.88;5.03;;;22.50;98.20;;;;;;5080771;28;20050;-59
2023/07/14 11:48:54;;;;;;;7.55;4.78;;;22.60;98.60;;;;;;5079243;28;20040;-59
2023/07/14 11:51:41;;;;;;;10.98;5.45;;;22.70;99.10;;;;;;5081216;28;20132;-60
2023/07/14 11:54:12;;;;;;;8.80;4.95;;;22.80;98.90;;;;;;5078817;28;20032;-60
2023/07/14 11:56:39;;;;;;;9.73;5.07;;;22.80;98.50;;;;;;5080477;28;20067;-60
2023/07/14 11:59:29;;;;;;;8.40;4.65;;;22.70;98.40;;;;;;5078977;28;20086;-59
2023/07/14 12:01:59;;;;;;;8.73;4.53;;;22.70;98.50;;;;;;5078764;28;20055;-59
2023/07/14 12:04:24;;;;;;;11.80;5.05;;;22.70;98.00;;;;;;5079482;28;20509;-60
2023/07/14 12:07:10;;;;;;;11.07;4.93;;;22.60;98.10;;;;;;5078692;28;20051;-59
2023/07/14 12:09:59;;;;;;;10.23;4.93;;;22.70;97.80;;;;;;5080081;28;20048;-59
2023/07/14 12:12:26;;;;;;;11.00;5.70;;;22.80;98.30;;;;;;5080274;28;20431;-60
2023/07/14 12:14:52;;;;;;;8.73;5.03;;;22.90;98.60;;;;;;5078387;28;20055;-60
2023/07/14 12:17:36;;;;;;;11.23;4.65;;;22.90;98.30;;;;;;5080655;28;20074;-59
2023/07/14 12:20:15;;;;;;;12.77;4.95;;;22.90;98.50;;;;;;5078890;28;20617;-59
2023/07/14 12:22:46;;;;;;;8.57;4.70;;;23.00;98.20;;;;;;5079252;28;20170;-60
2023/07/14 12:25:17;;;;;;;8.57;5.38;;;23.00;98.60;;;;;;5080077;28;20044;-60
2023/07/14 12:27:54;;;;;;;8.15;4.80;;;23.00;98.20;;;;;;5060545;28;20177;-59
2023/07/14 12:30:29;;;;;;;10.48;5.28;;;23.10;98.10;;;;;;5113378;28;20100;-60
2023/07/14 12:33:02;;;;;;;6.85;4.32;;;23.20;97.80;;;;;;5078099;28;20082;-59
2023/07/14 12:35:30;;;;;;;10.15;5.05;;;23.30;98.30;;;;;;5079221;28;20067;-59
2023/07/14 12:38:11;;;;;;;12.57;5.00;;;23.40;97.70;;;;;;5079636;28;20049;-59
2023/07/14 12:40:37;;;;;;;11.02;4.88;;;23.60;97.10;;;;;;5076574;28;20050;-60
2023/07/14 12:43:06;;;;;;;9.55;4.93;;;23.60;98.00;;;;;;5079026;28;20032;-60
2023/07/14 12:45:33;;;;;;;11.68;4.65;;;23.70;97.10;;;;;;5078216;28;20037;-60
2023/07/14 12:48:01;;;;;;;11.05;5.47;;;23.70;97.50;;;;;;5079735;28;20041;-58
2023/07/14 12:50:28;;;;;;;7.25;4.30;;;23.70;97.30;;;;;;5079435;28;20044;-59
2023/07/14 12:52:54;;;;;;;10.77;4.43;;;23.60;97.60;;;;;;5078286;28;20040;-59
2023/07/14 12:55:24;;;;;;;7.78;3.92;;;23.50;97.60;;;;;;5061976;28;20040;-60